sensor_id;sensor_type;location;lat;lon;timestamp;pressure;altitude;pressure_sealevel;temperature;humidity
7836;BME280;3963;42.658;23.298;2023-04-02T00:00:14;59114.25;;;8.23;100.00
7836;BME280;3963;42.658;23.298;2023-04-02T00:02:58;59161.47;;;8.31;100.00
7836;BME280;3963;42.658;23.298;2023-04-02T00:05:37;59125.97;;;8.34;100.00
7836;BME280;3963;42.658;23.298;2023-04-02T00:08:23;59127.41;;;8.31;100.00
7836;BME280;3963;42.658;23.298;2023-04-02T00:10:52;59136.75;;;8.32;100.00
7836;BME280;3963;42.658;23.298;2023-04-02T00:13:27;59129.44;;;8.30;100.00
7836;BME280;3963;42.658;23.298;2023-04-02T00:15:56;59130.97;;;8.29;100.00
7836;BME280;3963;42.658;23.298;2023-04-02T00:18:25;59132.38;;;8.26;100.00
7836;BME280;3963;42.658;23.298;2023-04-02T00:20:55;59123.47;;;8.22;100.00
7836;BME280;3963;42.658;23.298;2023-04-02T00:23:25;59133.53;;;8.29;100.00
7836;BME280;3963;42.658;23.298;2023-04-02T00:25:52;59129.34;;;8.28;100.00
7836;BME280;3963;42.658;23.298;2023-04-02T00:28:21;59100.09;;;8.32;100.00
7836;BME280;3963;42.658;23.298;2023-04-02T00:30:50;59155.34;;;8.33;100.00
7836;BME280;3963;42.658;23.298;2023-04-02T00:33:20;59128.19;;;8.24;100.00
7836;BME280;3963;42.658;23.298;2023-04-02T00:35:51;59140.47;;;8.21;100.00
7836;BME280;3963;42.658;23.298;2023-04-02T00:38:21;59110.59;;;8.22;100.00
7836;BME280;3963;42.658;23.298;2023-04-02T00:40:50;59141.53;;;8.22;100.00
7836;BME280;3963;42.658;23.298;2023-04-02T00:43:18;59107.38;;;8.19;100.00
7836;BME280;3963;42.658;23.298;2023-04-02T00:45:53;59130.88;;;8.12;100.00
7836;BME280;3963;42.658;23.298;2023-04-02T00:48:36;59120.91;;;8.22;100.00
7836;BME280;3963;42.658;23.298;2023-04-02T00:51:15;59150.06;;;8.30;100.00
7836;BME280;3963;42.658;23.298;2023-04-02T00:53:44;59146.94;;;8.15;100.00
7836;BME280;3963;42.658;23.298;2023-04-02T00:56:16;59094.78;;;8.12;100.00
7836;BME280;3963;42.658;23.298;2023-04-02T00:58:49;59108.69;;;7.82;100.00
7836;BME280;3963;42.658;23.298;2023-04-02T01:01:21;59130.59;;;8.19;100.00
7836;BME280;3963;42.658;23.298;2023-04-02T01:03:54;59113.69;;;8.23;100.00
7836;BME280;3963;42.658;23.298;2023-04-02T01:06:25;59119.81;;;8.21;100.00
7836;BME280;3963;42.658;23.298;2023-04-02T01:09:17;59108.81;;;8.16;100.00
7836;BME280;3963;42.658;23.298;2023-04-02T01:14:51;59109.19;;;8.11;100.00
7836;BME280;3963;42.658;23.298;2023-04-02T01:17:31;59158.44;;;8.19;100.00
7836;BME280;3963;42.658;23.298;2023-04-02T01:23:07;59134.88;;;8.23;100.00
7836;BME280;3963;42.658;23.298;2023-04-02T01:25:42;59112.09;;;8.21;100.00
7836;BME280;3963;42.658;23.298;2023-04-02T01:28:15;59148.63;;;8.49;100.00
7836;BME280;3963;42.658;23.298;2023-04-02T01:30:48;59160.00;;;8.50;100.00
7836;BME280;3963;42.658;23.298;2023-04-02T01:33:16;59124.28;;;8.45;100.00
7836;BME280;3963;42.658;23.298;2023-04-02T01:35:45;59159.75;;;8.42;100.00
7836;BME280;3963;42.658;23.298;2023-04-02T01:38:20;59143.47;;;8.49;100.00
7836;BME280;3963;42.658;23.298;2023-04-02T01:40:56;59155.31;;;8.48;100.00
7836;BME280;3963;42.658;23.298;2023-04-02T01:43:29;59153.16;;;8.46;100.00
7836;BME280;3963;42.658;23.298;2023-04-02T01:46:04;59137.34;;;8.36;100.00
7836;BME280;3963;42.658;23.298;2023-04-02T01:48:31;59158.44;;;8.48;100.00
7836;BME280;3963;42.658;23.298;2023-04-02T01:50:59;59145.78;;;8.56;100.00
7836;BME280;3963;42.658;23.298;2023-04-02T01:53:29;59162.31;;;8.57;100.00
7836;BME280;3963;42.658;23.298;2023-04-02T01:55:59;59174.78;;;8.59;100.00
7836;BME280;3963;42.658;23.298;2023-04-02T01:58:29;59172.19;;;8.59;100.00
7836;BME280;3963;42.658;23.298;2023-04-02T02:01:00;59170.22;;;8.62;100.00
7836;BME280;3963;42.658;23.298;2023-04-02T02:03:28;59170.94;;;8.53;100.00
7836;BME280;3963;42.658;23.298;2023-04-02T02:05:56;59161.97;;;8.47;100.00
7836;BME280;3963;42.658;23.298;2023-04-02T02:08:32;59193.81;;;8.57;100.00
7836;BME280;3963;42.658;23.298;2023-04-02T02:11:03;59187.31;;;8.49;100.00
7836;BME280;3963;42.658;23.298;2023-04-02T02:13:30;59169.06;;;8.58;100.00
7836;BME280;3963;42.658;23.298;2023-04-02T02:16:00;59178.84;;;8.58;100.00
7836;BME280;3963;42.658;23.298;2023-04-02T02:18:29;59180.91;;;8.57;100.00
7836;BME280;3963;42.658;23.298;2023-04-02T02:20:57;59184.31;;;8.51;100.00
7836;BME280;3963;42.658;23.298;2023-04-02T02:23:27;59140.63;;;8.41;100.00
7836;BME280;3963;42.658;23.298;2023-04-02T02:25:55;59160.47;;;8.48;100.00
7836;BME280;3963;42.658;23.298;2023-04-02T02:28:24;59164.38;;;8.56;100.00
7836;BME280;3963;42.658;23.298;2023-04-02T02:30:56;59168.75;;;8.48;100.00
7836;BME280;3963;42.658;23.298;2023-04-02T02:33:29;59097.44;;;8.29;100.00
7836;BME280;3963;42.658;23.298;2023-04-02T02:35:58;59132.03;;;8.30;100.00
7836;BME280;3963;42.658;23.298;2023-04-02T02:38:48;59136.75;;;8.32;100.00
7836;BME280;3963;42.658;23.298;2023-04-02T02:41:23;59128.38;;;8.15;100.00
7836;BME280;3963;42.658;23.298;2023-04-02T02:43:58;59106.31;;;8.18;100.00
7836;BME280;3963;42.658;23.298;2023-04-02T02:46:27;59102.22;;;8.19;100.00
7836;BME280;3963;42.658;23.298;2023-04-02T02:48:57;59107.56;;;8.24;100.00
7836;BME280;3963;42.658;23.298;2023-04-02T02:51:29;59132.13;;;8.33;100.00
7836;BME280;3963;42.658;23.298;2023-04-02T02:54:04;59188.56;;;8.40;100.00
7836;BME280;3963;42.658;23.298;2023-04-02T02:56:34;59141.00;;;8.37;100.00
7836;BME280;3963;42.658;23.298;2023-04-02T02:59:04;59143.47;;;8.49;100.00
7836;BME280;3963;42.658;23.298;2023-04-02T03:01:33;59158.31;;;8.46;100.00
7836;BME280;3963;42.658;23.298;2023-04-02T03:04:02;59157.59;;;8.55;100.00
7836;BME280;3963;42.658;23.298;2023-04-02T03:06:30;59166.41;;;8.56;100.00
7836;BME280;3963;42.658;23.298;2023-04-02T03:09:02;59188.28;;;8.62;100.00
7836;BME280;3963;42.658;23.298;2023-04-02T03:11:37;59147.91;;;8.43;100.00
7836;BME280;3963;42.658;23.298;2023-04-02T03:14:13;59166.25;;;8.51;100.00
7836;BME280;3963;42.658;23.298;2023-04-02T03:16:44;59177.63;;;8.52;100.00
7836;BME280;3963;42.658;23.298;2023-04-02T03:19:24;59139.22;;;8.45;100.00
7836;BME280;3963;42.658;23.298;2023-04-02T03:21:56;59142.53;;;8.36;100.00
7836;BME280;3963;42.658;23.298;2023-04-02T03:24:31;59125.34;;;8.31;100.00
7836;BME280;3963;42.658;23.298;2023-04-02T03:27:04;59115.75;;;8.22;100.00
7836;BME280;3963;42.658;23.298;2023-04-02T03:29:38;59116.81;;;8.23;100.00
7836;BME280;3963;42.658;23.298;2023-04-02T03:32:13;59123.22;;;8.29;100.00
7836;BME280;3963;42.658;23.298;2023-04-02T03:34:46;59121.09;;;8.27;100.00
7836;BME280;3963;42.658;23.298;2023-04-02T03:37:18;59145.81;;;8.26;100.00
7836;BME280;3963;42.658;23.298;2023-04-02T03:39:51;59113.44;;;8.15;100.00
7836;BME280;3963;42.658;23.298;2023-04-02T03:42:22;59133.88;;;8.25;100.00
7836;BME280;3963;42.658;23.298;2023-04-02T03:44:53;59155.84;;;8.33;100.00
7836;BME280;3963;42.658;23.298;2023-04-02T03:47:29;59135.59;;;8.29;100.00
7836;BME280;3963;42.658;23.298;2023-04-02T03:50:02;59104.97;;;8.24;100.00
7836;BME280;3963;42.658;23.298;2023-04-02T03:52:34;59132.75;;;8.36;100.00
7836;BME280;3963;42.658;23.298;2023-04-02T03:55:09;59162.34;;;8.42;100.00
7836;BME280;3963;42.658;23.298;2023-04-02T03:57:45;59146.69;;;8.37;100.00
7836;BME280;3963;42.658;23.298;2023-04-02T04:00:15;59126.25;;;8.27;100.00
7836;BME280;3963;42.658;23.298;2023-04-02T04:02:49;59134.59;;;8.30;100.00
7836;BME280;3963;42.658;23.298;2023-04-02T04:05:25;59123.03;;;8.24;100.00
7836;BME280;3963;42.658;23.298;2023-04-02T04:07:59;59153.81;;;8.34;100.00
7836;BME280;3963;42.658;23.298;2023-04-02T04:10:28;59161.09;;;8.36;100.00
7836;BME280;3963;42.658;23.298;2023-04-02T04:13:01;59152.66;;;8.45;100.00
7836;BME280;3963;42.658;23.298;2023-04-02T04:15:32;59176.38;;;8.46;100.00
7836;BME280;3963;42.658;23.298;2023-04-02T04:18:05;59147.50;;;8.45;100.00
7836;BME280;3963;42.658;23.298;2023-04-02T04:20:41;59136.28;;;8.34;100.00
7836;BME280;3963;42.658;23.298;2023-04-02T04:23:17;59102.97;;;8.10;100.00
7836;BME280;3963;42.658;23.298;2023-04-02T04:25:44;59059.97;;;7.89;100.00
7836;BME280;3963;42.658;23.298;2023-04-02T04:28:22;59033.53;;;7.69;100.00
7836;BME280;3963;42.658;23.298;2023-04-02T04:30:57;59029.69;;;7.31;100.00
7836;BME280;3963;42.658;23.298;2023-04-02T04:33:27;58975.72;;;7.19;100.00
7836;BME280;3963;42.658;23.298;2023-04-02T04:36:03;58960.22;;;7.02;100.00
7836;BME280;3963;42.658;23.298;2023-04-02T04:38:31;58929.19;;;6.82;100.00
7836;BME280;3963;42.658;23.298;2023-04-02T04:41:03;58904.56;;;6.68;100.00
7836;BME280;3963;42.658;23.298;2023-04-02T04:43:39;58929.69;;;6.51;100.00
7836;BME280;3963;42.658;23.298;2023-04-02T04:46:09;58874.56;;;6.33;100.00
7836;BME280;3963;42.658;23.298;2023-04-02T04:48:47;58856.69;;;6.06;100.00
7836;BME280;3963;42.658;23.298;2023-04-02T04:51:20;58842.09;;;5.99;100.00
7836;BME280;3963;42.658;23.298;2023-04-02T04:53:50;58866.44;;;6.05;100.00
7836;BME280;3963;42.658;23.298;2023-04-02T04:56:21;58844.13;;;5.99;100.00
7836;BME280;3963;42.658;23.298;2023-04-02T04:58:51;58828.19;;;5.98;100.00
7836;BME280;3963;42.658;23.298;2023-04-02T05:01:23;58814.56;;;5.90;100.00
7836;BME280;3963;42.658;23.298;2023-04-02T05:03:55;58836.03;;;6.03;100.00
7836;BME280;3963;42.658;23.298;2023-04-02T05:06:34;58835.81;;;5.96;100.00
7836;BME280;3963;42.658;23.298;2023-04-02T05:09:09;58818.09;;;5.89;100.00
7836;BME280;3963;42.658;23.298;2023-04-02T05:11:40;58833.16;;;5.93;100.00
7836;BME280;3963;42.658;23.298;2023-04-02T05:14:17;58834.66;;;5.92;100.00
7836;BME280;3963;42.658;23.298;2023-04-02T05:16:51;58826.41;;;5.92;100.00
7836;BME280;3963;42.658;23.298;2023-04-02T05:19:22;58842.63;;;6.00;100.00
7836;BME280;3963;42.658;23.298;2023-04-02T05:21:56;58840.22;;;6.05;100.00
7836;BME280;3963;42.658;23.298;2023-04-02T05:24:35;58833.38;;;6.16;100.00
7836;BME280;3963;42.658;23.298;2023-04-02T05:27:11;58872.81;;;6.26;100.00
7836;BME280;3963;42.658;23.298;2023-04-02T05:29:43;58870.94;;;6.32;100.00
7836;BME280;3963;42.658;23.298;2023-04-02T05:32:14;58897.78;;;6.35;100.00
7836;BME280;3963;42.658;23.298;2023-04-02T05:34:45;58897.59;;;6.45;100.00
7836;BME280;3963;42.658;23.298;2023-04-02T05:37:18;58931.09;;;6.47;100.00
7836;BME280;3963;42.658;23.298;2023-04-02T05:39:51;58906.97;;;6.49;100.00
7836;BME280;3963;42.658;23.298;2023-04-02T05:42:21;58921.06;;;6.55;100.00
7836;BME280;3963;42.658;23.298;2023-04-02T05:45:00;58914.84;;;6.83;100.00
7836;BME280;3963;42.658;23.298;2023-04-02T05:47:31;58956.84;;;6.94;100.00
7836;BME280;3963;42.658;23.298;2023-04-02T05:50:17;58994.28;;;7.05;100.00
7836;BME280;3963;42.658;23.298;2023-04-02T05:52:50;58978.31;;;7.19;100.00
7836;BME280;3963;42.658;23.298;2023-04-02T05:55:29;58979.25;;;7.32;100.00
7836;BME280;3963;42.658;23.298;2023-04-02T05:58:01;59036.59;;;7.52;100.00
7836;BME280;3963;42.658;23.298;2023-04-02T06:00:42;59096.59;;;7.75;100.00
7836;BME280;3963;42.658;23.298;2023-04-02T06:03:18;59096.75;;;7.95;100.00
7836;BME280;3963;42.658;23.298;2023-04-02T06:05:49;59075.72;;;7.82;100.00
7836;BME280;3963;42.658;23.298;2023-04-02T06:08:21;59031.00;;;7.86;100.00
7836;BME280;3963;42.658;23.298;2023-04-02T06:10:52;59100.84;;;8.08;100.00
7836;BME280;3963;42.658;23.298;2023-04-02T06:13:20;59113.63;;;8.20;100.00
7836;BME280;3963;42.658;23.298;2023-04-02T06:15:47;59132.22;;;8.21;100.00
7836;BME280;3963;42.658;23.298;2023-04-02T06:18:17;59144.81;;;8.43;100.00
7836;BME280;3963;42.658;23.298;2023-04-02T06:20:46;59152.88;;;8.53;100.00
7836;BME280;3963;42.658;23.298;2023-04-02T06:23:16;59213.72;;;8.81;100.00
7836;BME280;3963;42.658;23.298;2023-04-02T06:25:48;59207.53;;;8.97;100.00
7836;BME280;3963;42.658;23.298;2023-04-02T06:28:20;59215.03;;;8.89;100.00
7836;BME280;3963;42.658;23.298;2023-04-02T06:30:52;59238.78;;;9.05;100.00
7836;BME280;3963;42.658;23.298;2023-04-02T06:33:20;59204.59;;;9.02;100.00
7836;BME280;3963;42.658;23.298;2023-04-02T06:35:49;59204.38;;;9.11;100.00
7836;BME280;3963;42.658;23.298;2023-04-02T06:38:20;59220.72;;;9.05;100.00
7836;BME280;3963;42.658;23.298;2023-04-02T06:40:52;59231.03;;;9.05;100.00
7836;BME280;3963;42.658;23.298;2023-04-02T06:43:24;59245.00;;;9.06;100.00
7836;BME280;3963;42.658;23.298;2023-04-02T06:45:58;59263.88;;;9.14;100.00
7836;BME280;3963;42.658;23.298;2023-04-02T06:48:27;59242.84;;;9.18;100.00
7836;BME280;3963;42.658;23.298;2023-04-02T06:50:57;59247.47;;;9.18;100.00
7836;BME280;3963;42.658;23.298;2023-04-02T06:53:27;59268.56;;;9.30;100.00
7836;BME280;3963;42.658;23.298;2023-04-02T06:56:02;59278.03;;;9.34;100.00
7836;BME280;3963;42.658;23.298;2023-04-02T06:58:29;59279.34;;;9.43;100.00
7836;BME280;3963;42.658;23.298;2023-04-02T07:00:56;59274.88;;;9.49;100.00
7836;BME280;3963;42.658;23.298;2023-04-02T07:03:24;59278.94;;;9.62;100.00
7836;BME280;3963;42.658;23.298;2023-04-02T07:05:52;59342.63;;;9.81;100.00
7836;BME280;3963;42.658;23.298;2023-04-02T07:08:19;59314.47;;;9.88;100.00
7836;BME280;3963;42.658;23.298;2023-04-02T07:10:47;59375.44;;;10.02;100.00
7836;BME280;3963;42.658;23.298;2023-04-02T07:13:16;59354.84;;;9.90;100.00
7836;BME280;3963;42.658;23.298;2023-04-02T07:15:44;59339.88;;;9.76;100.00
7836;BME280;3963;42.658;23.298;2023-04-02T07:18:21;59309.28;;;9.88;100.00
7836;BME280;3963;42.658;23.298;2023-04-02T07:20:48;59368.91;;;10.08;100.00
7836;BME280;3963;42.658;23.298;2023-04-02T07:23:15;59429.47;;;10.38;100.00
7836;BME280;3963;42.658;23.298;2023-04-02T07:25:42;59428.97;;;10.55;100.00
7836;BME280;3963;42.658;23.298;2023-04-02T07:28:09;59449.66;;;10.70;100.00
7836;BME280;3963;42.658;23.298;2023-04-02T07:30:37;59460.81;;;10.78;100.00
7836;BME280;3963;42.658;23.298;2023-04-02T07:33:03;59446.22;;;10.91;100.00
7836;BME280;3963;42.658;23.298;2023-04-02T07:35:30;59489.59;;;11.02;100.00
7836;BME280;3963;42.658;23.298;2023-04-02T07:37:57;59470.50;;;11.04;100.00
7836;BME280;3963;42.658;23.298;2023-04-02T07:40:24;59521.25;;;11.03;100.00
7836;BME280;3963;42.658;23.298;2023-04-02T07:42:50;59498.63;;;11.08;100.00
7836;BME280;3963;42.658;23.298;2023-04-02T07:45:17;59496.03;;;11.08;91.97
7836;BME280;3963;42.658;23.298;2023-04-02T07:47:45;59541.13;;;11.24;87.82
7836;BME280;3963;42.658;23.298;2023-04-02T07:50:12;59521.09;;;11.30;83.34
7836;BME280;3963;42.658;23.298;2023-04-02T07:52:39;59511.69;;;11.43;84.41
7836;BME280;3963;42.658;23.298;2023-04-02T07:55:07;59565.28;;;11.64;84.45
7836;BME280;3963;42.658;23.298;2023-04-02T07:57:37;59613.38;;;11.90;80.85
7836;BME280;3963;42.658;23.298;2023-04-02T08:00:09;59677.78;;;12.21;79.51
7836;BME280;3963;42.658;23.298;2023-04-02T08:02:36;59715.22;;;12.54;77.71
7836;BME280;3963;42.658;23.298;2023-04-02T08:05:07;59699.19;;;12.56;76.47
7836;BME280;3963;42.658;23.298;2023-04-02T08:07:35;59708.03;;;12.71;71.75
7836;BME280;3963;42.658;23.298;2023-04-02T08:10:04;59735.69;;;12.75;70.99
7836;BME280;3963;42.658;23.298;2023-04-02T08:12:31;59672.50;;;12.50;71.64
7836;BME280;3963;42.658;23.298;2023-04-02T08:14:58;59729.44;;;12.74;72.04
7836;BME280;3963;42.658;23.298;2023-04-02T08:17:25;59677.56;;;12.77;70.75
7836;BME280;3963;42.658;23.298;2023-04-02T08:19:55;59714.81;;;12.73;70.42
7836;BME280;3963;42.658;23.298;2023-04-02T08:22:26;59743.09;;;13.09;69.39
7836;BME280;3963;42.658;23.298;2023-04-02T08:24:53;59799.19;;;13.23;68.96
7836;BME280;3963;42.658;23.298;2023-04-02T08:27:20;59735.31;;;12.95;68.66
7836;BME280;3963;42.658;23.298;2023-04-02T08:29:47;59695.97;;;12.53;68.96
7836;BME280;3963;42.658;23.298;2023-04-02T08:32:17;59779.09;;;12.99;68.55
7836;BME280;3963;42.658;23.298;2023-04-02T08:34:44;59763.25;;;13.06;68.15
7836;BME280;3963;42.658;23.298;2023-04-02T08:37:11;59730.31;;;12.85;68.85
7836;BME280;3963;42.658;23.298;2023-04-02T08:39:40;59754.13;;;12.98;69.26
7836;BME280;3963;42.658;23.298;2023-04-02T08:42:17;59933.59;;;14.20;65.81
7836;BME280;3963;42.658;23.298;2023-04-02T08:44:53;60035.25;;;15.13;61.18
7836;BME280;3963;42.658;23.298;2023-04-02T08:47:27;60027.03;;;14.85;61.91
7836;BME280;3963;42.658;23.298;2023-04-02T08:50:00;60116.59;;;15.57;59.41
7836;BME280;3963;42.658;23.298;2023-04-02T08:52:30;60215.69;;;16.30;57.41
7836;BME280;3963;42.658;23.298;2023-04-02T08:55:00;60307.81;;;16.94;55.27
7836;BME280;3963;42.658;23.298;2023-04-02T08:57:35;60488.75;;;18.09;50.35
7836;BME280;3963;42.658;23.298;2023-04-02T09:00:07;60395.84;;;17.74;49.45
7836;BME280;3963;42.658;23.298;2023-04-02T09:02:38;60551.75;;;18.73;46.16
7836;BME280;3963;42.658;23.298;2023-04-02T09:05:15;60596.28;;;19.17;44.66
7836;BME280;3963;42.658;23.298;2023-04-02T09:07:43;60691.25;;;19.76;44.03
7836;BME280;3963;42.658;23.298;2023-04-02T09:10:14;60630.09;;;19.24;43.14
7836;BME280;3963;42.658;23.298;2023-04-02T09:12:42;60781.56;;;20.18;41.20
7836;BME280;3963;42.658;23.298;2023-04-02T09:15:16;60840.72;;;20.71;39.26
7836;BME280;3963;42.658;23.298;2023-04-02T09:17:52;60821.88;;;20.43;38.68
7836;BME280;3963;42.658;23.298;2023-04-02T09:20:23;60684.03;;;19.64;40.42
7836;BME280;3963;42.658;23.298;2023-04-02T09:22:52;60610.84;;;19.13;41.30
7836;BME280;3963;42.658;23.298;2023-04-02T09:25:22;60670.75;;;19.45;40.77
7836;BME280;3963;42.658;23.298;2023-04-02T09:27:53;60586.69;;;18.81;41.36
7836;BME280;3963;42.658;23.298;2023-04-02T09:30:28;60509.00;;;18.18;41.46
7836;BME280;3963;42.658;23.298;2023-04-02T09:33:00;60492.00;;;18.12;43.05
7836;BME280;3963;42.658;23.298;2023-04-02T09:35:32;60451.41;;;17.75;44.60
7836;BME280;3963;42.658;23.298;2023-04-02T09:38:15;60402.59;;;17.56;45.00
7836;BME280;3963;42.658;23.298;2023-04-02T09:40:48;60536.44;;;18.39;42.43
7836;BME280;3963;42.658;23.298;2023-04-02T09:43:17;60646.34;;;19.22;42.34
7836;BME280;3963;42.658;23.298;2023-04-02T09:45:54;60549.97;;;18.66;42.31
7836;BME280;3963;42.658;23.298;2023-04-02T09:48:24;60562.63;;;18.68;41.51
7836;BME280;3963;42.658;23.298;2023-04-02T09:51:03;60430.66;;;17.65;43.39
7836;BME280;3963;42.658;23.298;2023-04-02T09:53:33;60428.03;;;17.65;44.34
7836;BME280;3963;42.658;23.298;2023-04-02T09:56:13;60352.00;;;17.16;42.59
7836;BME280;3963;42.658;23.298;2023-04-02T09:58:41;60346.38;;;17.21;44.20
7836;BME280;3963;42.658;23.298;2023-04-02T10:01:28;60301.00;;;16.64;45.57
7836;BME280;3963;42.658;23.298;2023-04-02T10:03:56;60313.34;;;16.87;45.34
7836;BME280;3963;42.658;23.298;2023-04-02T10:06:25;60380.81;;;17.48;43.17
7836;BME280;3963;42.658;23.298;2023-04-02T10:08:53;60353.88;;;17.25;44.01
7836;BME280;3963;42.658;23.298;2023-04-02T10:11:25;60254.81;;;16.28;44.90
7836;BME280;3963;42.658;23.298;2023-04-02T10:13:56;60411.44;;;17.54;44.06
7836;BME280;3963;42.658;23.298;2023-04-02T10:16:26;60478.84;;;17.81;43.42
7836;BME280;3963;42.658;23.298;2023-04-02T10:18:59;60619.56;;;19.07;40.78
7836;BME280;3963;42.658;23.298;2023-04-02T10:21:28;60648.69;;;19.29;39.53
7836;BME280;3963;42.658;23.298;2023-04-02T10:23:56;60612.22;;;19.07;41.43
7836;BME280;3963;42.658;23.298;2023-04-02T10:26:37;60706.25;;;19.68;40.15
7836;BME280;3963;42.658;23.298;2023-04-02T10:32:04;60948.78;;;21.34;36.42
7836;BME280;3963;42.658;23.298;2023-04-02T10:34:36;60889.75;;;21.04;37.59
7836;BME280;3963;42.658;23.298;2023-04-02T10:37:25;60981.84;;;21.77;37.65
7836;BME280;3963;42.658;23.298;2023-04-02T10:40:02;60692.69;;;19.41;37.53
7836;BME280;3963;42.658;23.298;2023-04-02T10:42:39;60635.22;;;19.04;39.16
7836;BME280;3963;42.658;23.298;2023-04-02T10:45:18;60685.97;;;19.59;39.00
7836;BME280;3963;42.658;23.298;2023-04-02T10:47:53;60609.22;;;18.65;41.92
7836;BME280;3963;42.658;23.298;2023-04-02T10:50:27;60430.97;;;17.75;44.19
7836;BME280;3963;42.658;23.298;2023-04-02T10:53:05;60357.22;;;17.16;44.29
7836;BME280;3963;42.658;23.298;2023-04-02T10:55:39;60305.78;;;16.80;47.84
7836;BME280;3963;42.658;23.298;2023-04-02T10:58:19;60347.69;;;16.97;48.45
7836;BME280;3963;42.658;23.298;2023-04-02T11:00:49;60412.16;;;17.45;46.86
7836;BME280;3963;42.658;23.298;2023-04-02T11:03:26;60540.03;;;18.38;44.72
7836;BME280;3963;42.658;23.298;2023-04-02T11:05:57;60578.13;;;18.93;42.92
7836;BME280;3963;42.658;23.298;2023-04-02T11:08:28;60630.16;;;19.09;42.73
7836;BME280;3963;42.658;23.298;2023-04-02T11:11:00;60619.75;;;18.97;42.82
7836;BME280;3963;42.658;23.298;2023-04-02T11:13:36;60584.50;;;18.79;43.77
7836;BME280;3963;42.658;23.298;2023-04-02T11:16:10;60501.03;;;18.16;45.27
7836;BME280;3963;42.658;23.298;2023-04-02T11:18:39;60442.94;;;17.57;46.49
7836;BME280;3963;42.658;23.298;2023-04-02T11:21:07;60356.88;;;17.06;47.49
7836;BME280;3963;42.658;23.298;2023-04-02T11:23:56;60263.09;;;16.26;49.08
7836;BME280;3963;42.658;23.298;2023-04-02T11:26:42;60258.66;;;16.48;48.73
7836;BME280;3963;42.658;23.298;2023-04-02T11:29:20;60272.59;;;16.74;48.42
7836;BME280;3963;42.658;23.298;2023-04-02T11:31:50;60388.44;;;17.26;47.33
7836;BME280;3963;42.658;23.298;2023-04-02T11:37:31;60371.69;;;17.42;45.75
7836;BME280;3963;42.658;23.298;2023-04-02T11:39:58;60420.03;;;17.77;45.43
7836;BME280;3963;42.658;23.298;2023-04-02T11:42:28;60422.53;;;17.43;44.82
7836;BME280;3963;42.658;23.298;2023-04-02T11:45:00;60382.75;;;17.28;44.96
7836;BME280;3963;42.658;23.298;2023-04-02T11:50:47;60345.00;;;16.95;47.21
7836;BME280;3963;42.658;23.298;2023-04-02T11:53:19;60375.34;;;17.26;46.57
7836;BME280;3963;42.658;23.298;2023-04-02T11:56:05;60375.91;;;17.26;46.34
7836;BME280;3963;42.658;23.298;2023-04-02T11:58:53;60344.59;;;17.14;46.92
7836;BME280;3963;42.658;23.298;2023-04-02T12:01:44;60388.56;;;17.45;47.05
7836;BME280;3963;42.658;23.298;2023-04-02T12:07:36;60364.06;;;17.17;45.94
7836;BME280;3963;42.658;23.298;2023-04-02T12:10:15;60403.00;;;17.54;45.97
7836;BME280;3963;42.658;23.298;2023-04-02T12:12:43;60355.97;;;17.10;45.49
7836;BME280;3963;42.658;23.298;2023-04-02T12:15:36;60288.47;;;16.64;47.44
7836;BME280;3963;42.658;23.298;2023-04-02T12:18:14;60258.66;;;16.48;48.74
7836;BME280;3963;42.658;23.298;2023-04-02T12:20:46;60298.41;;;16.64;47.60
7836;BME280;3963;42.658;23.298;2023-04-02T12:23:18;60298.38;;;16.78;47.49
7836;BME280;3963;42.658;23.298;2023-04-02T12:25:53;60333.16;;;17.01;46.66
7836;BME280;3963;42.658;23.298;2023-04-02T12:28:21;60326.28;;;16.99;46.04
7836;BME280;3963;42.658;23.298;2023-04-02T12:30:49;60333.88;;;17.06;46.71
7836;BME280;3963;42.658;23.298;2023-04-02T12:33:27;60352.06;;;17.19;46.01
7836;BME280;3963;42.658;23.298;2023-04-02T12:35:56;60401.59;;;17.43;45.51
7836;BME280;3963;42.658;23.298;2023-04-02T12:38:25;60422.97;;;17.70;44.86
7836;BME280;3963;42.658;23.298;2023-04-02T12:40:53;60449.31;;;17.75;43.84
7836;BME280;3963;42.658;23.298;2023-04-02T12:43:27;60470.06;;;17.99;43.24
7836;BME280;3963;42.658;23.298;2023-04-02T12:45:56;60430.69;;;17.82;42.43
7836;BME280;3963;42.658;23.298;2023-04-02T12:48:25;60405.38;;;17.46;43.43
7836;BME280;3963;42.658;23.298;2023-04-02T12:50:52;60367.28;;;17.35;43.54
7836;BME280;3963;42.658;23.298;2023-04-02T12:53:21;60439.66;;;17.54;43.29
7836;BME280;3963;42.658;23.298;2023-04-02T12:55:51;60449.59;;;17.83;42.70
7836;BME280;3963;42.658;23.298;2023-04-02T12:58:28;60409.25;;;17.67;43.33
7836;BME280;3963;42.658;23.298;2023-04-02T13:01:12;60415.88;;;17.78;42.88
7836;BME280;3963;42.658;23.298;2023-04-02T13:03:43;60456.25;;;17.94;43.11
7836;BME280;3963;42.658;23.298;2023-04-02T13:06:20;60500.91;;;18.28;42.40
7836;BME280;3963;42.658;23.298;2023-04-02T13:08:48;60523.94;;;18.42;40.96
7836;BME280;3963;42.658;23.298;2023-04-02T13:11:15;60496.69;;;18.12;41.64
7836;BME280;3963;42.658;23.298;2023-04-02T13:13:44;60455.03;;;17.73;41.59
7836;BME280;3963;42.658;23.298;2023-04-02T13:16:25;60400.31;;;17.51;43.10
7836;BME280;3963;42.658;23.298;2023-04-02T13:19:11;60396.50;;;17.48;43.70
7836;BME280;3963;42.658;23.298;2023-04-02T13:21:44;60397.22;;;17.53;43.33
7836;BME280;3963;42.658;23.298;2023-04-02T13:24:18;60336.25;;;17.31;43.28
7836;BME280;3963;42.658;23.298;2023-04-02T13:26:45;60337.41;;;16.88;43.56
7836;BME280;3963;42.658;23.298;2023-04-02T13:29:21;60300.09;;;16.82;43.89
7836;BME280;3963;42.658;23.298;2023-04-02T13:31:49;60288.56;;;16.67;43.85
7836;BME280;3963;42.658;23.298;2023-04-02T13:34:17;60278.19;;;16.69;44.19
7836;BME280;3963;42.658;23.298;2023-04-02T13:36:44;60271.72;;;16.63;44.66
7836;BME280;3963;42.658;23.298;2023-04-02T13:39:11;60253.78;;;16.44;44.42
7836;BME280;3963;42.658;23.298;2023-04-02T13:41:40;60250.19;;;16.31;44.78
7836;BME280;3963;42.658;23.298;2023-04-02T13:44:16;60228.66;;;16.28;44.24
7836;BME280;3963;42.658;23.298;2023-04-02T13:46:44;60231.78;;;16.11;44.57
7836;BME280;3963;42.658;23.298;2023-04-02T13:49:12;60233.81;;;16.25;44.50
7836;BME280;3963;42.658;23.298;2023-04-02T13:51:41;60225.53;;;16.27;44.41
7836;BME280;3963;42.658;23.298;2023-04-02T13:54:15;60230.78;;;16.13;45.22